Time;durP1;ratioP1;P1;durP2;ratioP2;P2;SDS_P1;SDS_P2;PMS_P1;PMS_P2;Temp;Humidity;BMP_temperature;BMP_pressure;BME280_temperature;BME280_humidity;BME280_pressure;Samples;Min_cycle;Max_cycle;Signal;HPM_P1;HPM_P2
2023/08/11 00:01:29;;;;;;;29.73;19.63;;;;;;;15.05;100.00;94441.38;4990467;28;20108;-64
2023/08/11 00:03:57;;;;;;;14.90;10.18;;;;;;;15.04;100.00;94437.03;4989491;28;20111;-63
2023/08/11 00:06:25;;;;;;;8.00;5.00;;;;;;;15.01;100.00;94439.88;4989727;28;20049;-62
2023/08/11 00:08:55;;;;;;;7.53;5.40;;;;;;;15.02;100.00;94447.75;4989120;28;20495;-64
2023/08/11 00:11:22;;;;;;;7.47;5.28;;;;;;;14.93;100.00;94445.59;4989615;28;20042;-65
2023/08/11 00:13:49;;;;;;;7.67;5.23;;;;;;;14.85;100.00;94449.75;4984327;28;20411;-63
2023/08/11 00:16:16;;;;;;;7.60;5.20;;;;;;;14.85;100.00;94441.44;4975248;28;20531;-61
2023/08/11 00:18:43;;;;;;;20.58;11.85;;;;;;;14.80;100.00;94450.25;4989387;28;20055;-60
2023/08/11 00:21:10;;;;;;;13.20;8.77;;;;;;;14.75;100.00;94450.78;4989485;28;20060;-62
2023/08/11 00:23:39;;;;;;;9.98;6.93;;;;;;;14.73;100.00;94451.19;4989290;28;20049;-65
2023/08/11 00:26:06;;;;;;;9.50;5.37;;;;;;;14.76;100.00;94457.84;4987452;28;20108;-68
2023/08/11 00:28:33;;;;;;;9.02;5.30;;;;;;;14.75;100.00;94454.31;4980693;28;20077;-61
2023/08/11 00:31:00;;;;;;;8.50;4.97;;;;;;;14.76;100.00;94452.31;4976058;28;20043;-60
2023/08/11 00:33:26;;;;;;;7.95;4.97;;;;;;;14.66;100.00;94454.09;4989742;28;20047;-60
2023/08/11 00:35:53;;;;;;;7.65;4.75;;;;;;;14.61;100.00;94454.63;4988583;28;20046;-61
2023/08/11 00:38:26;;;;;;;6.77;4.60;;;;;;;14.62;100.00;94456.16;4989534;28;20042;-64
2023/08/11 00:40:52;;;;;;;7.93;4.90;;;;;;;14.63;100.00;94454.97;4988472;28;20050;-59
2023/08/11 00:43:19;;;;;;;9.93;6.45;;;;;;;14.50;100.00;94454.03;4989044;28;20499;-60
2023/08/11 00:45:48;;;;;;;16.63;10.23;;;;;;;14.52;100.00;94466.22;4976414;28;20053;-68
2023/08/11 00:48:16;;;;;;;11.38;6.95;;;;;;;14.51;100.00;94463.91;4989093;28;20042;-62
2023/08/11 00:50:43;;;;;;;7.73;5.30;;;;;;;14.47;100.00;94468.72;4988642;28;20407;-60
2023/08/11 00:53:10;;;;;;;7.30;5.20;;;;;;;14.41;100.00;94468.44;4988654;28;20042;-63
2023/08/11 00:55:37;;;;;;;6.93;4.90;;;;;;;14.39;100.00;94473.59;4988992;28;20050;-64
2023/08/11 00:58:05;;;;;;;7.25;5.20;;;;;;;14.39;100.00;94468.84;4987943;28;20066;-65
2023/08/11 01:00:32;;;;;;;7.53;5.40;;;;;;;14.39;100.00;94473.59;4989229;28;20054;-60
2023/08/11 01:02:59;;;;;;;8.40;5.50;;;;;;;14.35;100.00;94467.38;4988036;28;20054;-61
2023/08/11 01:05:30;;;;;;;11.07;5.35;;;;;;;14.35;100.00;94468.16;4988948;28;20058;-60
2023/08/11 01:08:34;;;;;;;12.55;5.60;;;;;;;14.27;100.00;94464.00;4987896;28;20137;-63
2023/08/11 01:11:17;;;;;;;9.27;5.38;;;;;;;14.26;100.00;94459.66;4980768;28;20053;-60
2023/08/11 01:13:52;;;;;;;7.43;5.00;;;;;;;14.27;100.00;94465.97;4988261;28;20050;-60
2023/08/11 01:16:22;;;;;;;7.67;4.90;;;;;;;14.23;100.00;94470.78;4986322;28;20039;-61
2023/08/11 01:18:50;;;;;;;7.70;4.95;;;;;;;14.23;100.00;94466.03;4987769;28;20046;-64
2023/08/11 01:21:17;;;;;;;7.03;4.88;;;;;;;14.22;100.00;94474.75;4975849;28;20042;-60
2023/08/11 01:23:44;;;;;;;7.68;5.10;;;;;;;14.21;100.00;94473.22;4987300;28;20064;-60
2023/08/11 01:26:11;;;;;;;10.57;6.25;;;;;;;14.16;100.00;94475.22;4987331;28;20117;-60
2023/08/11 01:28:40;;;;;;;12.10;7.73;;;;;;;14.17;100.00;94467.75;4973499;28;20046;-60
2023/08/11 01:31:08;;;;;;;8.68;6.03;;;;;;;14.12;100.00;94471.75;4998587;28;21726;-62
2023/08/11 01:33:35;;;;;;;8.30;5.90;;;;;;;14.14;100.00;94474.09;5006409;28;20038;-61
2023/08/11 01:36:02;;;;;;;9.60;5.90;;;;;;;14.14;100.00;94479.63;5007272;28;20053;-62
2023/08/11 01:38:28;;;;;;;8.35;5.40;;;;;;;14.10;100.00;94470.63;5023002;28;20041;-62
2023/08/11 01:40:57;;;;;;;8.27;5.47;;;;;;;14.08;100.00;94475.81;4989174;28;20425;-60
2023/08/11 01:43:26;;;;;;;8.00;5.50;;;;;;;14.05;100.00;94476.66;4988135;28;20100;-60
2023/08/11 01:45:53;;;;;;;7.65;5.35;;;;;;;14.02;100.00;94483.03;4987360;28;20057;-60
2023/08/11 01:48:21;;;;;;;10.10;5.25;;;;;;;13.97;100.00;94473.28;4988162;28;20035;-60
2023/08/11 01:50:48;;;;;;;7.53;5.40;;;;;;;13.96;100.00;94480.78;4987438;28;20047;-68
2023/08/11 01:53:15;;;;;;;9.03;5.60;;;;;;;13.93;100.00;94478.84;4986884;28;20042;-60
2023/08/11 01:55:43;;;;;;;8.77;5.43;;;;;;;13.85;100.00;94480.19;4988575;28;20103;-56
2023/08/11 01:58:10;;;;;;;7.32;5.18;;;;;;;13.87;100.00;94472.25;4971365;28;20047;-62
2023/08/11 02:00:36;;;;;;;7.70;5.35;;;;;;;13.85;100.00;94474.66;4988291;28;20042;-64
2023/08/11 02:03:03;;;;;;;8.98;5.20;;;;;;;13.84;100.00;94477.84;4986158;28;20042;-64
2023/08/11 02:05:30;;;;;;;7.67;5.17;;;;;;;13.78;100.00;94475.59;4988281;28;20038;-59
2023/08/11 02:07:58;;;;;;;7.63;5.15;;;;;;;13.72;100.00;94474.53;4987497;28;20050;-61
2023/08/11 02:10:24;;;;;;;8.93;5.45;;;;;;;13.69;100.00;94474.59;4988181;28;20049;-60
2023/08/11 02:12:51;;;;;;;7.90;5.30;;;;;;;13.67;100.00;94475.00;4985638;28;20407;-60
2023/08/11 02:15:18;;;;;;;9.10;5.72;;;;;;;13.66;100.00;94472.66;4979126;28;20126;-64
2023/08/11 02:17:45;;;;;;;7.47;5.40;;;;;;;13.63;100.00;94476.28;4987697;28;20100;-64
2023/08/11 02:20:21;;;;;;;8.57;5.70;;;;;;;13.53;100.00;94476.03;4987403;28;20050;-60
2023/08/11 02:22:49;;;;;;;7.72;5.68;;;;;;;13.51;100.00;94461.88;4987418;28;20050;-66
2023/08/11 02:25:16;;;;;;;7.50;5.38;;;;;;;13.48;100.00;94462.75;4987888;28;20053;-63
2023/08/11 02:27:43;;;;;;;8.18;5.70;;;;;;;13.47;100.00;94463.16;4987611;28;20375;-60
2023/08/11 02:30:11;;;;;;;9.57;5.70;;;;;;;13.39;100.00;94465.25;4987531;28;20046;-60
2023/08/11 02:32:39;;;;;;;7.35;5.47;;;;;;;13.43;100.00;94462.44;4987710;28;20050;-60
2023/08/11 02:35:07;;;;;;;9.63;5.93;;;;;;;13.32;100.00;94462.59;4988646;28;20068;-60
2023/08/11 02:37:34;;;;;;;13.77;6.20;;;;;;;13.10;100.00;94473.97;4991683;28;20050;-60
2023/08/11 02:40:00;;;;;;;9.63;6.00;;;;;;;13.18;100.00;94474.66;4990294;28;20084;-59
2023/08/11 02:42:27;;;;;;;8.90;5.73;;;;;;;13.16;100.00;94474.28;4998024;28;20127;-63
2023/08/11 02:44:54;;;;;;;7.90;5.40;;;;;;;13.15;100.00;94480.97;4986414;28;20038;-59
2023/08/11 02:47:21;;;;;;;9.25;6.00;;;;;;;13.12;100.00;94481.81;4989469;28;20038;-60
2023/08/11 02:49:47;;;;;;;10.77;5.47;;;;;;;13.13;100.00;94475.88;4990498;28;20046;-64
2023/08/11 02:52:14;;;;;;;8.68;5.47;;;;;;;13.10;100.00;94481.44;4991073;28;20392;-59
2023/08/11 02:54:41;;;;;;;11.87;6.70;;;;;;;13.07;100.00;94490.56;4991174;28;20535;-63
2023/08/11 02:57:08;;;;;;;10.65;7.28;;;;;;;13.09;100.00;94480.66;5004130;28;22111;-58
2023/08/11 02:59:35;;;;;;;9.63;6.60;;;;;;;13.12;100.00;94474.34;5010125;28;20487;-57
2023/08/11 03:02:02;;;;;;;10.25;6.57;;;;;;;13.11;100.00;94478.28;5009620;28;21239;-62
2023/08/11 03:04:29;;;;;;;8.85;5.70;;;;;;;13.12;100.00;94481.81;5010236;28;20064;-58
2023/08/11 03:06:55;;;;;;;8.40;5.50;;;;;;;13.12;100.00;94484.56;5024883;28;20033;-60
2023/08/11 03:09:22;;;;;;;8.60;5.50;;;;;;;13.11;100.00;94480.25;5004458;28;20041;-63
2023/08/11 03:11:49;;;;;;;8.93;5.63;;;;;;;13.05;100.00;94473.66;5009660;28;20056;-58
2023/08/11 03:14:17;;;;;;;8.38;5.60;;;;;;;13.05;100.00;94468.94;5007504;28;20205;-59
2023/08/11 03:16:44;;;;;;;8.35;5.93;;;;;;;12.90;100.00;94475.88;5009927;28;20516;-61
2023/08/11 03:19:11;;;;;;;9.17;6.20;;;;;;;12.91;100.00;94471.91;5009672;28;20050;-59
2023/08/11 03:21:38;;;;;;;8.73;5.95;;;;;;;12.92;100.00;94470.72;5010020;28;20050;-62
2023/08/11 03:24:06;;;;;;;8.90;5.35;;;;;;;12.92;100.00;94470.72;5009277;28;20050;-58
2023/08/11 03:26:33;;;;;;;8.50;5.75;;;;;;;12.69;100.00;94471.44;4997354;28;20050;-58
2023/08/11 03:28:59;;;;;;;10.57;5.72;;;;;;;12.74;100.00;94477.28;5009172;28;20044;-59
2023/08/11 03:31:26;;;;;;;9.27;6.10;;;;;;;12.73;100.00;94478.44;5010429;28;20152;-59
2023/08/11 03:33:53;;;;;;;9.20;5.97;;;;;;;12.74;100.00;94477.28;5008747;28;20155;-58
2023/08/11 03:36:20;;;;;;;9.57;5.95;;;;;;;12.76;100.00;94474.88;5010095;28;20041;-62
2023/08/11 03:38:48;;;;;;;10.18;6.50;;;;;;;12.72;100.00;94473.38;5009200;28;20050;-61
2023/08/11 03:41:14;;;;;;;11.45;6.07;;;;;;;12.71;100.00;94472.56;5009527;28;20046;-61
2023/08/11 03:43:41;;;;;;;8.17;5.67;;;;;;;12.66;100.00;94472.28;5009652;28;20116;-58
2023/08/11 03:46:08;;;;;;;8.82;5.93;;;;;;;12.73;100.00;94485.94;4977404;28;20906;-58
2023/08/11 03:48:35;;;;;;;8.45;5.78;;;;;;;12.74;100.00;94482.00;4976382;28;20462;-62
2023/08/11 03:51:02;;;;;;;10.63;6.40;;;;;;;12.68;100.00;94489.94;4988021;28;20392;-58
2023/08/11 03:53:33;;;;;;;10.05;5.78;;;;;;;12.66;100.00;94484.06;4989953;28;20100;-60
2023/08/11 03:56:00;;;;;;;8.23;5.90;;;;;;;12.68;100.00;94484.44;4989190;28;20054;-63
2023/08/11 03:58:27;;;;;;;9.98;6.22;;;;;;;12.63;100.00;94490.41;4989625;28;20050;-59
2023/08/11 04:00:54;;;;;;;10.35;6.07;;;;;;;12.63;100.00;94498.66;4987989;28;20080;-58
2023/08/11 04:03:22;;;;;;;9.68;5.65;;;;;;;12.62;100.00;94494.38;4989982;28;20046;-62
2023/08/11 04:05:49;;;;;;;11.55;6.10;;;;;;;12.64;100.00;94494.72;4989215;28;20050;-63
2023/08/11 04:08:16;;;;;;;10.53;6.10;;;;;;;12.64;100.00;94497.47;4989791;28;20100;-60
2023/08/11 04:10:43;;;;;;;13.57;6.53;;;;;;;12.59;100.00;94495.94;4989221;28;20046;-59
2023/08/11 04:13:10;;;;;;;10.27;6.13;;;;;;;12.63;100.00;94490.41;4989044;28;20504;-58
2023/08/11 04:15:38;;;;;;;10.57;6.68;;;;;;;12.73;100.00;94486.72;4982179;28;20042;-63
2023/08/11 04:18:05;;;;;;;9.20;5.88;;;;;;;12.75;100.00;94486.31;4988972;28;20046;-60
2023/08/11 04:20:33;;;;;;;8.10;5.93;;;;;;;12.77;100.00;94481.94;4989333;28;20039;-58
2023/08/11 04:23:00;;;;;;;8.38;5.70;;;;;;;12.78;100.00;94485.47;4988416;28;20059;-59
2023/08/11 04:25:27;;;;;;;8.50;5.82;;;;;;;12.82;100.00;94486.22;4989255;28;20065;-58
2023/08/11 04:27:55;;;;;;;8.18;5.85;;;;;;;12.88;100.00;94486.53;4988426;28;20046;-59
2023/08/11 04:30:23;;;;;;;9.23;5.90;;;;;;;12.91;100.00;94480.16;4989046;28;20057;-58
2023/08/11 04:32:50;;;;;;;9.57;6.33;;;;;;;12.78;100.00;94485.47;4989063;28;20042;-59
2023/08/11 04:35:17;;;;;;;9.88;6.18;;;;;;;12.86;100.00;94499.91;4988964;28;20199;-58
2023/08/11 04:37:44;;;;;;;8.82;6.32;;;;;;;12.86;100.00;94491.66;4988699;28;20504;-58
2023/08/11 04:40:13;;;;;;;8.90;6.10;;;;;;;12.87;100.00;94494.00;4991169;28;20483;-63
2023/08/11 04:42:40;;;;;;;10.43;6.20;;;;;;;12.66;100.00;94486.84;4993457;28;20053;-58
2023/08/11 04:45:08;;;;;;;9.27;6.40;;;;;;;12.78;100.00;94500.03;4989802;28;20603;-60
2023/08/11 04:47:36;;;;;;;10.00;6.60;;;;;;;12.88;100.00;94497.53;4968364;28;20053;-58
2023/08/11 04:50:03;;;;;;;10.43;6.25;;;;;;;12.92;100.00;94496.28;4984919;28;20042;-59
2023/08/11 04:52:30;;;;;;;10.02;6.07;;;;;;;12.89;100.00;94494.34;4988830;28;20038;-59
2023/08/11 04:54:57;;;;;;;8.98;6.35;;;;;;;12.93;100.00;94491.56;4988012;28;20056;-58
2023/08/11 04:57:24;;;;;;;9.87;5.70;;;;;;;13.04;100.00;94492.19;4988121;28;20073;-59
2023/08/11 04:59:51;;;;;;;9.68;6.10;;;;;;;13.13;100.00;94500.69;4988451;28;20108;-62
2023/08/11 05:02:18;;;;;;;10.10;5.85;;;;;;;13.25;100.00;94490.28;4988680;28;20043;-59
2023/08/11 05:04:44;;;;;;;8.68;5.93;;;;;;;13.37;100.00;94487.72;4987857;28;20047;-63
2023/08/11 05:07:11;;;;;;;9.30;6.47;;;;;;;13.43;100.00;94488.03;4988439;28;20046;-60
2023/08/11 05:09:38;;;;;;;9.57;6.13;;;;;;;13.47;100.00;94491.50;4986595;28;20058;-60
2023/08/11 05:12:05;;;;;;;11.73;6.30;;;;;;;13.30;100.00;94490.63;4987582;28;20488;-58
2023/08/11 05:14:32;;;;;;;9.38;6.30;;;;;;;13.27;100.00;94496.16;4983745;28;20050;-58
2023/08/11 05:16:59;;;;;;;12.38;6.60;;;;;;;13.12;100.00;94499.13;4982365;28;20432;-60
2023/08/11 05:19:31;;;;;;;9.90;6.57;;;;;;;13.22;100.00;94500.16;4988357;28;20054;-60
2023/08/11 05:21:58;;;;;;;9.97;6.10;;;;;;;13.28;100.00;94505.97;4987403;28;20046;-63
2023/08/11 05:24:24;;;;;;;8.95;6.18;;;;;;;13.42;100.00;94507.75;4986885;28;20569;-59
2023/08/11 05:26:51;;;;;;;10.27;6.75;;;;;;;13.37;100.00;94506.25;4987260;28;20046;-59
2023/08/11 05:29:18;;;;;;;9.95;6.45;;;;;;;13.50;100.00;94504.47;4987776;28;20046;-58
2023/08/11 05:31:45;;;;;;;9.27;6.70;;;;;;;13.66;100.00;94503.00;4987206;28;20104;-64
2023/08/11 05:34:12;;;;;;;9.77;6.53;;;;;;;13.72;100.00;94507.63;4988327;28;20100;-58
2023/08/11 05:36:38;;;;;;;10.13;6.65;;;;;;;13.97;100.00;94509.91;4986773;28;20046;-62
2023/08/11 05:39:08;;;;;;;9.70;6.57;;;;;;;14.01;100.00;94514.59;4986646;28;20038;-63
2023/08/11 05:41:34;;;;;;;9.65;6.18;;;;;;;14.27;100.00;94508.16;4987978;28;20053;-60
2023/08/11 05:44:01;;;;;;;10.57;6.50;;;;;;;14.48;100.00;94512.47;4986933;28;20050;-59
2023/08/11 05:46:30;;;;;;;8.93;5.70;;;;;;;14.69;100.00;94508.50;4982783;28;20054;-58
2023/08/11 05:48:57;;;;;;;9.73;6.50;;;;;;;14.68;100.00;94506.94;4986143;28;20132;-59
2023/08/11 05:51:24;;;;;;;9.43;6.43;;;;;;;14.57;100.00;94500.88;4973075;28;20068;-68
2023/08/11 05:53:51;;;;;;;11.60;6.35;;;;;;;14.71;100.00;94506.09;4981912;28;20050;-59
2023/08/11 05:56:20;;;;;;;12.13;7.05;;;;;;;14.63;100.00;94512.97;4996246;28;20054;-59
2023/08/11 05:58:47;;;;;;;9.93;6.77;;;;;;;14.47;100.00;94504.63;4993809;28;20043;-60
2023/08/11 06:01:14;;;;;;;10.10;6.72;;;;;;;14.53;100.00;94511.19;5006512;28;20085;-64
2023/08/11 06:03:41;;;;;;;11.43;6.70;;;;;;;14.60;100.00;94511.06;4976803;28;20415;-63
2023/08/11 06:06:07;;;;;;;11.80;7.20;;;;;;;14.82;100.00;94508.63;4978603;28;20038;-59
2023/08/11 06:08:34;;;;;;;15.63;7.15;;;;;;;15.22;100.00;94505.72;4983097;28;20038;-58
2023/08/11 06:11:01;;;;;;;12.90;7.03;;;;;;;17.29;100.00;94503.28;4978815;28;20051;-61
2023/08/11 06:13:28;;;;;;;10.63;6.25;;;;;;;19.72;100.00;94493.72;4983776;28;20396;-58
2023/08/11 06:15:54;;;;;;;10.77;6.30;;;;;;;21.61;100.00;94488.47;4982691;28;20102;-62
2023/08/11 06:18:21;;;;;;;7.38;5.55;;;;;;;22.79;100.00;94487.25;4979876;28;20035;-61
2023/08/11 06:20:49;;;;;;;6.82;5.22;;;;;;;23.00;94.41;94485.34;4978219;28;20398;-71
2023/08/11 06:23:16;;;;;;;8.63;5.83;;;;;;;24.20;85.91;94491.44;4976903;28;20061;-59
2023/08/11 06:25:43;;;;;;;7.82;5.53;;;;;;;25.43;78.54;94485.53;4983552;28;20042;-64
2023/08/11 06:28:10;;;;;;;7.47;5.03;;;;;;;24.74;79.43;94493.88;4993188;28;20538;-60
2023/08/11 06:30:37;;;;;;;7.80;5.22;;;;;;;24.92;81.77;94501.94;4991642;28;20050;-59
2023/08/11 06:33:04;;;;;;;7.93;5.20;;;;;;;25.43;77.61;94491.94;4990975;28;20042;-60
2023/08/11 06:35:32;;;;;;;9.37;4.90;;;;;;;26.78;70.25;94486.22;4991735;28;20309;-60
2023/08/11 06:37:59;;;;;;;7.25;5.32;;;;;;;27.57;62.72;94486.31;4978642;28;20038;-60
2023/08/11 06:40:26;;;;;;;7.97;5.22;;;;;;;28.67;59.11;94487.84;4992176;28;20045;-59
2023/08/11 06:42:53;;;;;;;7.40;4.95;;;;;;;30.24;54.25;94478.59;4978214;28;20050;-60
2023/08/11 06:45:19;;;;;;;6.85;4.32;;;;;;;29.89;51.39;94483.09;4992044;28;20054;-64
2023/08/11 06:47:46;;;;;;;9.67;5.20;;;;;;;27.27;61.33;94494.53;4991285;28;20046;-62
2023/08/11 06:50:13;;;;;;;9.75;5.10;;;;;;;28.28;57.83;94477.44;4990374;28;20052;-60
2023/08/11 06:52:40;;;;;;;7.65;4.82;;;;;;;27.76;60.19;94483.72;4991725;28;20387;-59
2023/08/11 06:55:07;;;;;;;8.48;5.32;;;;;;;26.44;65.58;94486.13;4991145;28;20049;-61
2023/08/11 06:57:35;;;;;;;10.70;4.85;;;;;;;27.36;63.73;94479.41;4991704;28;20048;-64
2023/08/11 07:00:04;;;;;;;10.00;5.40;;;;;;;28.56;60.61;94482.22;4976743;28;20058;-59
2023/08/11 07:02:31;;;;;;;7.50;4.60;;;;;;;29.91;54.69;94479.72;4991551;28;20050;-64
2023/08/11 07:04:58;;;;;;;8.02;5.20;;;;;;;29.67;56.12;94473.50;4990796;28;20072;-60
2023/08/11 07:07:24;;;;;;;8.73;4.88;;;;;;;30.50;51.32;94483.69;4981040;28;20051;-59
2023/08/11 07:09:51;;;;;;;7.43;4.80;;;;;;;29.17;56.32;94483.16;4989284;28;20491;-59
2023/08/11 07:12:18;;;;;;;10.57;4.90;;;;;;;28.90;56.30;94479.22;4991483;28;20282;-61
2023/08/11 07:14:45;;;;;;;8.50;4.70;;;;;;;29.92;53.87;94478.44;4990843;28;20046;-60
2023/08/11 07:17:11;;;;;;;8.30;4.85;;;;;;;29.86;53.66;94472.81;4988038;28;20050;-62
2023/08/11 07:19:38;;;;;;;8.38;4.70;;;;;;;30.07;52.24;94479.53;4975905;28;20054;-60
2023/08/11 07:22:05;;;;;;;8.55;4.55;;;;;;;31.67;49.46;94471.19;4984866;28;20052;-65
2023/08/11 07:24:32;;;;;;;6.30;4.10;;;;;;;32.47;45.04;94476.94;4990786;28;20054;-61
2023/08/11 07:26:59;;;;;;;6.40;3.88;;;;;;;33.92;42.14;94470.56;4989477;28;20092;-60
2023/08/11 07:29:26;;;;;;;6.60;3.95;;;;;;;33.66;40.73;94468.66;4991140;28;20047;-62
2023/08/11 07:31:53;;;;;;;7.32;4.10;;;;;;;34.54;39.21;94468.88;4990895;28;20049;-60
2023/08/11 07:34:19;;;;;;;5.60;3.70;;;;;;;34.01;38.03;94472.91;4990555;28;20100;-62
2023/08/11 07:36:46;;;;;;;5.63;4.00;;;;;;;34.10;38.92;94475.25;4990649;28;20436;-60
2023/08/11 07:39:13;;;;;;;6.47;3.90;;;;;;;34.86;37.78;94470.59;4991082;28;20043;-60
2023/08/11 07:41:49;;;;;;;5.68;3.90;;;;;;;33.91;37.68;94475.50;4993479;28;20194;-60
2023/08/11 07:44:16;;;;;;;6.75;3.97;;;;;;;34.42;38.60;94474.91;4990922;28;20095;-60
2023/08/11 07:46:43;;;;;;;6.38;3.90;;;;;;;34.83;37.02;94474.53;4990758;28;20447;-63
2023/08/11 07:49:10;;;;;;;6.13;3.93;;;;;;;34.35;37.13;94475.63;4990730;28;20120;-59
2023/08/11 07:51:39;;;;;;;4.50;3.80;;;;;;;35.36;35.03;94483.31;4988305;28;20057;-59
2023/08/11 07:54:06;;;;;;;6.10;3.88;;;;;;;34.37;37.17;94484.38;4990132;28;20045;-64
2023/08/11 07:56:33;;;;;;;5.32;3.78;;;;;;;33.09;38.88;94475.66;4990964;28;20046;-59
2023/08/11 07:59:00;;;;;;;6.55;4.10;;;;;;;31.32;42.38;94483.63;4990117;28;20360;-61
2023/08/11 08:01:27;;;;;;;7.00;3.97;;;;;;;32.76;39.97;94491.34;4990421;28;20049;-59
2023/08/11 08:03:55;;;;;;;4.78;4.00;;;;;;;31.60;42.35;94488.88;4988653;28;20096;-62
2023/08/11 08:06:22;;;;;;;5.88;3.55;;;;;;;30.80;43.97;94491.31;4990558;28;20057;-64
2023/08/11 08:08:49;;;;;;;5.70;3.80;;;;;;;31.56;43.77;94489.19;4990114;28;20049;-60
2023/08/11 08:11:16;;;;;;;6.72;3.85;;;;;;;32.07;43.97;94488.31;4990374;28;20046;-60
2023/08/11 08:13:43;;;;;;;7.03;3.60;;;;;;;32.55;41.25;94488.44;4989787;28;20056;-59
2023/08/11 08:16:10;;;;;;;5.28;3.70;;;;;;;32.92;39.96;94489.47;4988675;28;20056;-59
2023/08/11 08:18:37;;;;;;;7.07;3.58;;;;;;;30.76;44.11;94488.00;4990162;28;20046;-63
2023/08/11 08:21:03;;;;;;;4.75;3.80;;;;;;;31.55;43.17;94489.72;4989774;28;20039;-59
2023/08/11 08:23:30;;;;;;;4.47;3.70;;;;;;;31.47;42.44;94486.75;4982415;28;20056;-64
2023/08/11 08:25:57;;;;;;;5.20;3.53;;;;;;;31.34;41.89;94493.13;4989040;28;20115;-62
2023/08/11 08:28:24;;;;;;;4.72;3.53;;;;;;;30.88;43.73;94495.09;4989996;28;20043;-60
2023/08/11 08:30:51;;;;;;;5.63;4.00;;;;;;;31.41;42.49;94491.72;4989507;28;20057;-62
2023/08/11 08:33:18;;;;;;;4.50;3.80;;;;;;;31.88;41.09;94494.06;4989972;28;20143;-63
2023/08/11 08:35:45;;;;;;;5.75;3.67;;;;;;;32.18;40.68;94481.66;4989398;28;20042;-60
2023/08/11 08:38:12;;;;;;;4.90;3.70;;;;;;;32.27;41.09;94478.38;4990091;28;20054;-63
2023/08/11 08:40:39;;;;;;;5.10;3.70;;;;;;;33.01;39.73;94478.38;5001185;28;20042;-61
2023/08/11 08:43:08;;;;;;;4.93;3.50;;;;;;;31.66;41.47;94478.19;4989265;28;20042;-61
2023/08/11 08:45:37;;;;;;;4.50;3.80;;;;;;;30.89;42.54;94473.97;4978868;28;20383;-59
2023/08/11 08:48:08;;;;;;;5.60;3.80;;;;;;;31.57;42.83;94476.53;4970865;28;20058;-60
2023/08/11 08:50:37;;;;;;;4.23;3.50;;;;;;;31.45;41.37;94478.78;4989705;28;20042;-60
2023/08/11 08:53:04;;;;;;;5.30;3.67;;;;;;;31.30;43.56;94475.66;4989254;28;20070;-62
2023/08/11 08:55:32;;;;;;;5.10;3.72;;;;;;;31.39;43.16;94475.25;4989681;28;20042;-60
2023/08/11 08:58:00;;;;;;;6.00;4.10;;;;;;;31.12;42.98;94470.78;4989114;28;20100;-59
2023/08/11 09:00:28;;;;;;;7.28;4.18;;;;;;;31.41;44.23;94474.69;4989562;28;20046;-60
2023/08/11 09:02:56;;;;;;;4.80;3.47;;;;;;;32.14;42.77;94473.47;4988859;28;20052;-60
2023/08/11 09:05:24;;;;;;;6.38;3.60;;;;;;;31.85;42.72;94478.09;4989398;28;20060;-60
2023/08/11 09:07:51;;;;;;;4.95;3.47;;;;;;;32.23;41.35;94473.00;4988950;28;20515;-62
2023/08/11 09:10:18;;;;;;;4.60;3.42;;;;;;;31.83;41.86;94472.19;4987820;28;20443;-61
2023/08/11 09:12:45;;;;;;;5.75;3.50;;;;;;;32.66;41.05;94462.66;4989001;28;20054;-63
2023/08/11 09:15:12;;;;;;;4.57;3.70;;;;;;;32.32;41.52;94460.47;4989100;28;20047;-61
2023/08/11 09:17:39;;;;;;;4.57;3.40;;;;;;;32.79;40.99;94459.75;4989491;28;20060;-60
2023/08/11 09:20:10;;;;;;;4.30;3.40;;;;;;;32.78;40.89;94446.09;4988767;28;20042;-64
2023/08/11 09:22:38;;;;;;;4.60;3.70;;;;;;;33.41;38.39;94452.66;4989216;28;20046;-58
2023/08/11 09:25:06;;;;;;;5.82;3.40;;;;;;;32.64;41.28;94448.97;4988764;28;20049;-65
2023/08/11 09:27:33;;;;;;;5.13;3.40;;;;;;;33.79;37.19;94451.50;4989188;28;20038;-62
2023/08/11 09:30:00;;;;;;;4.60;3.42;;;;;;;32.40;39.50;94447.13;4988762;28;20381;-63
2023/08/11 09:32:27;;;;;;;5.22;3.38;;;;;;;33.06;38.68;94453.22;4989188;28;20220;-61
2023/08/11 09:34:54;;;;;;;5.30;3.38;;;;;;;33.16;37.61;94449.41;4988455;28;20052;-60
2023/08/11 09:37:20;;;;;;;5.60;3.40;;;;;;;33.97;36.27;94446.88;4988954;28;20050;-63
2023/08/11 09:39:55;;;;;;;4.37;3.20;;;;;;;35.52;34.39;94446.97;4989153;28;20052;-60
2023/08/11 09:42:26;;;;;;;5.25;3.20;;;;;;;36.87;32.52;94452.16;4989022;28;20058;-63
2023/08/11 09:44:53;;;;;;;5.18;3.10;;;;;;;34.26;34.72;94450.50;4988172;28;20487;-63
2023/08/11 09:47:19;;;;;;;4.20;3.25;;;;;;;35.11;33.30;94453.72;4988817;28;20047;-61
2023/08/11 09:49:49;;;;;;;5.28;2.90;;;;;;;35.94;32.04;94443.78;4988296;28;20051;-65
2023/08/11 09:52:17;;;;;;;6.77;3.10;;;;;;;36.56;30.91;94453.00;4989082;28;20065;-61
2023/08/11 09:54:44;;;;;;;4.88;3.20;;;;;;;35.15;32.23;94456.97;4987038;28;20066;-61
2023/08/11 09:57:13;;;;;;;4.55;3.10;;;;;;;33.65;33.99;94461.44;4988660;28;20519;-59
2023/08/11 09:59:44;;;;;;;4.28;2.90;;;;;;;34.56;33.53;94454.84;4988697;28;20412;-61
2023/08/11 10:02:17;;;;;;;4.40;2.92;;;;;;;34.28;34.27;94459.25;5003733;28;20120;-60
2023/08/11 10:04:57;;;;;;;3.70;2.80;;;;;;;33.38;35.01;94450.16;4988266;28;20050;-63
2023/08/11 10:07:33;;;;;;;4.45;3.10;;;;;;;33.40;34.78;94454.00;4988961;28;20454;-60
2023/08/11 10:10:08;;;;;;;4.30;3.10;;;;;;;31.33;38.12;94454.72;4990618;28;20048;-63
2023/08/11 10:12:40;;;;;;;3.30;2.70;;;;;;;33.47;36.24;94457.47;4993178;28;20050;-65
2023/08/11 10:15:11;;;;;;;3.97;3.00;;;;;;;31.91;36.14;94463.81;4987859;28;20047;-61
2023/08/11 10:17:38;;;;;;;4.23;3.10;;;;;;;30.81;38.64;94465.28;4988845;28;20054;-62
2023/08/11 10:20:07;;;;;;;4.82;2.97;;;;;;;32.27;37.20;94461.34;4988132;28;20051;-60
2023/08/11 10:22:34;;;;;;;5.43;2.88;;;;;;;32.95;36.77;94457.84;4988732;28;20181;-60
2023/08/11 10:25:04;;;;;;;4.45;3.10;;;;;;;36.00;32.47;94461.47;4987935;28;20068;-61
2023/08/11 10:27:31;;;;;;;3.90;2.90;;;;;;;36.32;30.73;94459.34;4988413;28;20088;-60
2023/08/11 10:29:59;;;;;;;4.70;2.93;;;;;;;36.49;31.50;94462.34;4988055;28;20042;-60
2023/08/11 10:32:31;;;;;;;4.88;3.00;;;;;;;38.49;28.61;94454.59;4988764;28;20046;-60
2023/08/11 10:34:58;;;;;;;3.72;2.50;;;;;;;40.00;25.54;94451.66;4973558;28;20044;-63
2023/08/11 10:37:35;;;;;;;3.78;2.67;;;;;;;38.95;26.50;94451.22;4988291;28;20043;-60
2023/08/11 10:40:07;;;;;;;3.15;2.10;;;;;;;38.99;25.09;94454.44;4975494;28;20049;-60
2023/08/11 10:42:39;;;;;;;3.13;2.17;;;;;;;40.09;24.20;94450.94;4990843;28;20061;-60
2023/08/11 10:45:14;;;;;;;3.53;2.28;;;;;;;40.12;23.21;94452.59;4976005;28;20454;-62
2023/08/11 10:47:52;;;;;;;2.97;2.08;;;;;;;40.06;23.82;94451.38;4983574;28;20470;-60
2023/08/11 10:50:21;;;;;;;3.63;2.20;;;;;;;40.73;22.75;94452.84;4989042;28;20482;-60
2023/08/11 10:53:04;;;;;;;3.25;2.00;;;;;;;41.36;21.12;94451.00;5005276;28;20038;-60
2023/08/11 10:55:36;;;;;;;3.63;2.50;;;;;;;40.67;23.87;94440.88;5009199;28;20050;-60
2023/08/11 10:58:14;;;;;;;6.45;2.92;;;;;;;38.70;26.59;94442.75;5005742;28;20104;-60
2023/08/11 11:00:41;;;;;;;3.85;2.72;;;;;;;36.13;29.23;94451.16;5005786;28;20042;-59
2023/08/11 11:03:09;;;;;;;4.22;2.80;;;;;;;36.37;29.41;94452.69;5010855;28;20099;-59
2023/08/11 11:05:36;;;;;;;3.78;2.80;;;;;;;34.89;31.11;94449.47;5026422;28;20057;-64
2023/08/11 11:08:03;;;;;;;4.00;3.03;;;;;;;35.31;31.95;94446.38;5010774;28;20437;-61
2023/08/11 11:10:29;;;;;;;5.25;3.20;;;;;;;35.11;32.56;94448.03;5011448;28;20046;-59
2023/08/11 11:13:14;;;;;;;5.43;2.97;;;;;;;34.50;32.32;94437.13;5002025;28;20586;-63
2023/08/11 11:15:41;;;;;;;5.00;3.10;;;;;;;34.52;32.34;94432.41;5010966;28;20054;-58
2023/08/11 11:18:08;;;;;;;4.78;3.05;;;;;;;34.05;32.71;94430.59;5009956;28;21780;-61
2023/08/11 11:20:34;;;;;;;5.10;3.50;;;;;;;32.75;35.70;94430.16;5011138;28;20057;-59
2023/08/11 11:23:02;;;;;;;5.53;3.80;;;;;;;31.61;39.33;94427.97;5010084;28;20049;-59
2023/08/11 11:25:29;;;;;;;5.30;3.80;;;;;;;30.72;41.48;94428.06;5010948;28;20054;-61
2023/08/11 11:27:56;;;;;;;6.43;3.80;;;;;;;29.86;44.20;94427.53;5010041;28;20050;-59
2023/08/11 11:30:23;;;;;;;4.82;3.30;;;;;;;29.89;42.88;94423.66;5010981;28;20075;-59